createdAt,value
2019-01-12T00:00:05.732Z,94.90
2019-01-12T00:01:05.798Z,94.90
2019-01-12T00:02:10.909Z,95.00
2019-01-12T00:03:05.976Z,95.00
2019-01-12T00:04:07.539Z,94.90
2019-01-12T00:05:08.084Z,94.90
2019-01-12T00:06:05.063Z,94.90
2019-01-12T00:07:05.283Z,94.90
2019-01-12T00:08:10.505Z,94.90
2019-01-12T00:09:05.451Z,94.90
2019-01-12T00:10:08.179Z,94.90
2019-01-12T00:11:07.814Z,94.90
2019-01-12T00:12:05.791Z,94.90
2019-01-12T00:13:08.441Z,94.90
2019-01-12T00:14:07.897Z,95.00
2019-01-12T00:15:13.469Z,95.00
2019-01-12T00:16:07.950Z,94.90
2019-01-12T00:17:08.532Z,94.90
2019-01-12T00:18:05.566Z,94.90
2019-01-12T00:19:08.195Z,94.90
2019-01-12T00:20:05.313Z,95.00
2019-01-12T00:21:08.088Z,94.90
2019-01-12T00:22:05.064Z,94.90
2019-01-12T00:23:05.242Z,94.90
2019-01-12T00:24:08.037Z,94.90
2019-01-12T00:25:05.126Z,94.90
2019-01-12T00:26:05.227Z,94.90
2019-01-12T00:27:07.881Z,94.90
2019-01-12T00:28:08.374Z,94.90
2019-01-12T00:29:05.385Z,94.90
2019-01-12T00:30:08.471Z,94.90
2019-01-12T00:31:07.999Z,94.90
2019-01-12T00:32:11.070Z,94.90
2019-01-12T00:33:05.233Z,94.90
2019-01-12T00:34:08.182Z,94.90
2019-01-12T00:35:05.165Z,94.90
2019-01-12T00:36:05.265Z,94.90
2019-01-12T00:37:07.817Z,94.90
2019-01-12T00:38:05.911Z,94.90
2019-01-12T00:39:10.084Z,94.90
2019-01-12T00:40:07.736Z,94.90
2019-01-12T00:41:08.020Z,94.90
2019-01-12T00:42:06.005Z,94.90
2019-01-12T00:43:05.253Z,94.90
2019-01-12T00:44:07.635Z,94.80
2019-01-12T00:45:05.661Z,94.90
2019-01-12T00:46:05.928Z,94.80
2019-01-12T00:47:06.015Z,94.90
2019-01-12T00:48:05.186Z,94.80
2019-01-12T00:49:07.916Z,94.90
2019-01-12T00:50:06.059Z,94.90
2019-01-12T00:51:07.799Z,94.80
2019-01-12T00:52:10.975Z,94.90
2019-01-12T00:53:05.957Z,94.90
2019-01-12T00:54:05.076Z,94.90
2019-01-12T00:55:05.143Z,94.80
2019-01-12T00:56:05.212Z,94.80
2019-01-12T00:57:07.797Z,94.80
2019-01-12T00:58:05.814Z,94.80
2019-01-12T00:59:05.959Z,94.90
2019-01-12T01:00:07.592Z,94.70
2019-01-12T01:01:05.565Z,94.90
2019-01-12T01:02:05.708Z,94.90
2019-01-12T01:03:05.802Z,94.90
2019-01-12T01:04:08.340Z,94.90
2019-01-12T01:05:10.401Z,94.90
2019-01-12T01:06:05.369Z,94.90
2019-01-12T01:07:05.453Z,94.90
2019-01-12T01:08:05.437Z,94.90
2019-01-12T01:09:05.470Z,94.80
2019-01-12T01:10:05.585Z,94.80
2019-01-12T01:11:08.231Z,94.70
2019-01-12T01:12:05.122Z,94.70
2019-01-12T01:13:05.174Z,94.80
2019-01-12T01:14:07.706Z,94.80
2019-01-12T01:15:08.268Z,94.70
2019-01-12T01:16:05.178Z,94.80
2019-01-12T01:17:07.813Z,94.80
2019-01-12T01:18:05.900Z,94.70
2019-01-12T01:19:05.956Z,94.80
2019-01-12T01:20:05.946Z,94.80
2019-01-12T01:21:06.105Z,94.80
2019-01-12T01:22:05.199Z,94.80
2019-01-12T01:23:07.756Z,94.80
2019-01-12T01:24:08.192Z,94.80
2019-01-12T01:25:07.626Z,94.80
2019-01-12T01:26:05.529Z,94.80
2019-01-12T01:27:05.648Z,94.80
2019-01-12T01:28:05.721Z,94.80
2019-01-12T01:29:05.798Z,94.80
2019-01-12T01:30:05.197Z,94.80
2019-01-12T01:31:05.397Z,94.80
2019-01-12T01:32:05.520Z,94.80
2019-01-12T01:33:05.517Z,94.70
2019-01-12T01:34:08.256Z,94.80
2019-01-12T01:35:05.247Z,94.80
2019-01-12T01:36:05.304Z,94.70
2019-01-12T01:37:07.864Z,94.70
2019-01-12T01:38:05.858Z,94.70
2019-01-12T01:39:08.558Z,94.70
2019-01-12T01:40:08.163Z,94.70
2019-01-12T01:41:05.171Z,94.70
2019-01-12T01:42:07.796Z,94.70
2019-01-12T01:43:08.223Z,94.70
2019-01-12T01:44:07.762Z,94.70
2019-01-12T01:45:08.338Z,94.70
2019-01-12T01:46:05.436Z,94.70
2019-01-12T01:47:05.705Z,94.70
2019-01-12T01:48:05.873Z,94.70
2019-01-12T01:49:05.998Z,94.70
2019-01-12T01:50:05.484Z,94.70
2019-01-12T01:51:08.176Z,94.70
2019-01-12T01:52:07.635Z,94.70
2019-01-12T01:53:05.584Z,94.70
2019-01-12T01:54:08.272Z,94.70
2019-01-12T01:55:05.247Z,94.70
2019-01-12T01:56:05.309Z,94.70
2019-01-12T01:57:10.517Z,94.70
2019-01-12T01:58:08.144Z,94.70
2019-01-12T01:59:07.768Z,94.70
2019-01-12T02:00:08.213Z,94.70
2019-01-12T02:01:10.290Z,94.70
2019-01-12T02:02:07.922Z,94.60
2019-01-12T02:03:05.895Z,94.60
2019-01-12T02:04:05.979Z,94.60
2019-01-12T02:05:05.020Z,94.60
2019-01-12T02:06:05.058Z,94.60
2019-01-12T02:07:07.751Z,94.60
2019-01-12T02:08:10.780Z,94.60
2019-01-12T02:09:05.770Z,94.60
2019-01-12T02:10:05.847Z,94.60
2019-01-12T02:11:05.875Z,94.50
2019-01-12T02:12:06.031Z,94.50
2019-01-12T02:13:05.334Z,94.50
2019-01-12T02:14:05.382Z,94.60
2019-01-12T02:15:05.502Z,94.50
2019-01-12T02:16:05.574Z,94.60
2019-01-12T02:17:08.238Z,94.60
2019-01-12T02:18:05.256Z,94.60
2019-01-12T02:19:07.786Z,94.50
2019-01-12T02:20:05.847Z,94.60
2019-01-12T02:21:06.057Z,94.60
2019-01-12T02:22:05.158Z,94.50
2019-01-12T02:23:05.344Z,94.60
2019-01-12T02:24:07.959Z,94.60
2019-01-12T02:25:05.916Z,94.60
2019-01-12T02:26:08.477Z,94.60
2019-01-12T02:27:05.516Z,94.60
2019-01-12T02:28:08.113Z,94.60
2019-01-12T02:29:05.170Z,94.60
2019-01-12T02:30:08.011Z,94.60
2019-01-12T02:31:06.041Z,94.60
2019-01-12T02:32:05.113Z,94.60
2019-01-12T02:33:07.681Z,94.60
2019-01-12T02:34:05.657Z,94.60
2019-01-12T02:35:05.846Z,94.60
2019-01-12T02:36:06.053Z,94.60
2019-01-12T02:37:05.168Z,94.50
2019-01-12T02:38:05.182Z,94.60
2019-01-12T02:39:05.253Z,94.50
2019-01-12T02:40:05.336Z,94.60
2019-01-12T02:41:05.457Z,94.50
2019-01-12T02:42:10.776Z,94.50
2019-01-12T02:43:05.683Z,94.50
2019-01-12T02:44:05.721Z,94.50
2019-01-12T02:45:05.877Z,94.50
2019-01-12T02:46:05.979Z,94.50
2019-01-12T02:47:05.102Z,94.50
2019-01-12T02:48:10.457Z,94.50
2019-01-12T02:49:08.035Z,94.50
2019-01-12T02:50:08.652Z,94.50
2019-01-12T02:51:05.671Z,94.50
2019-01-12T02:52:05.970Z,94.50
2019-01-12T02:53:07.678Z,94.50
2019-01-12T02:54:05.578Z,94.50
2019-01-12T02:55:09.479Z,94.50
2019-01-12T02:56:05.399Z,94.40
2019-01-12T02:57:05.473Z,94.50
2019-01-12T02:58:05.531Z,94.50
2019-01-12T02:59:05.546Z,94.40
2019-01-12T03:00:05.626Z,94.40
2019-01-12T03:01:08.174Z,94.40
2019-01-12T03:02:05.138Z,94.40
2019-01-12T03:03:05.277Z,94.40
2019-01-12T03:04:08.056Z,94.40
2019-01-12T03:05:05.051Z,94.40
2019-01-12T03:06:07.821Z,94.50
2019-01-12T03:07:08.414Z,94.50
2019-01-12T03:08:05.483Z,94.50
2019-01-12T03:09:05.617Z,94.50
2019-01-12T03:10:08.206Z,94.50
2019-01-12T03:11:05.127Z,94.50
2019-01-12T03:12:05.545Z,94.50
2019-01-12T03:13:05.741Z,94.40
2019-01-12T03:14:05.919Z,94.50
2019-01-12T03:15:07.851Z,94.50
2019-01-12T03:16:08.476Z,94.40
2019-01-12T03:17:05.423Z,94.40
2019-01-12T03:18:05.559Z,94.40
2019-01-12T03:19:05.770Z,94.40
2019-01-12T03:20:05.958Z,94.40
2019-01-12T03:21:07.594Z,94.40
2019-01-12T03:22:08.164Z,94.30
2019-01-12T03:23:05.122Z,94.40
2019-01-12T03:24:05.180Z,94.30
2019-01-12T03:25:07.818Z,94.30
2019-01-12T03:26:10.860Z,94.40
2019-01-12T03:27:05.986Z,94.40
2019-01-12T03:28:10.340Z,94.30
2019-01-12T03:29:07.806Z,94.20
2019-01-12T03:30:08.281Z,94.20
2019-01-12T03:31:05.291Z,94.20
2019-01-12T03:32:07.945Z,94.20
2019-01-12T03:33:06.132Z,94.30
2019-01-12T03:34:05.245Z,94.30
2019-01-12T03:35:05.377Z,94.20
2019-01-12T03:36:07.977Z,94.20
2019-01-12T03:37:08.410Z,94.20
2019-01-12T03:38:05.345Z,94.20
2019-01-12T03:39:05.556Z,94.20
2019-01-12T03:40:05.888Z,94.20
2019-01-12T03:41:08.617Z,94.20
2019-01-12T03:42:05.647Z,94.20
2019-01-12T03:43:05.413Z,94.20
2019-01-12T03:44:08.068Z,94.20
2019-01-12T03:45:05.114Z,94.20
2019-01-12T03:46:07.767Z,94.20
2019-01-12T03:47:08.348Z,94.20
2019-01-12T03:48:05.370Z,94.20
2019-01-12T03:49:05.533Z,94.20
2019-01-12T03:50:08.222Z,94.20
2019-01-12T03:51:05.220Z,94.20
2019-01-12T03:52:05.346Z,94.20
2019-01-12T03:53:10.537Z,94.20
2019-01-12T03:54:10.468Z,94.20
2019-01-12T03:55:05.391Z,94.20
2019-01-12T03:56:05.573Z,94.20
2019-01-12T03:57:08.180Z,94.20
2019-01-12T03:58:05.161Z,94.20
2019-01-12T03:59:05.322Z,94.20
2019-01-12T04:00:05.480Z,94.20
2019-01-12T04:01:08.185Z,94.10
2019-01-12T04:02:07.727Z,94.10
2019-01-12T04:03:05.703Z,94.10
2019-01-12T04:04:05.116Z,94.10
2019-01-12T04:05:07.827Z,94.10
2019-01-12T04:06:05.790Z,94.10
2019-01-12T04:07:05.934Z,94.10
2019-01-12T04:08:05.086Z,94.10
2019-01-12T04:09:05.144Z,94.10
2019-01-12T04:10:05.817Z,94.10
2019-01-12T04:11:05.949Z,94.10
2019-01-12T04:12:05.172Z,94.10
2019-01-12T04:13:05.299Z,94.10
2019-01-12T04:14:05.421Z,94.10
2019-01-12T04:15:05.667Z,94.10
2019-01-12T04:16:05.687Z,94.10
2019-01-12T04:17:05.797Z,94.10
2019-01-12T04:18:05.941Z,94.10
2019-01-12T04:19:05.972Z,94.10
2019-01-12T04:20:07.614Z,94.10
2019-01-12T04:21:05.623Z,94.20
2019-01-12T04:22:10.909Z,94.20
2019-01-12T04:23:06.063Z,94.20
2019-01-12T04:24:07.736Z,94.10
2019-01-12T04:25:10.936Z,94.10
2019-01-12T04:26:05.811Z,94.20
2019-01-12T04:27:05.978Z,94.10
2019-01-12T04:28:10.293Z,94.10
2019-01-12T04:29:05.348Z,94.10
2019-01-12T04:30:05.712Z,94.00
2019-01-12T04:31:05.785Z,94.10
2019-01-12T04:32:10.934Z,94.00
2019-01-12T04:33:05.066Z,94.00
2019-01-12T04:34:05.138Z,94.00
2019-01-12T04:35:05.225Z,94.00
2019-01-12T04:36:07.850Z,94.00
2019-01-12T04:37:08.424Z,94.00
2019-01-12T04:38:07.874Z,94.00
2019-01-12T04:39:05.950Z,94.00
2019-01-12T04:40:05.035Z,94.10
2019-01-12T04:41:05.037Z,94.10
2019-01-12T04:42:07.726Z,94.10
2019-01-12T04:43:08.388Z,94.10
2019-01-12T04:44:05.435Z,94.10
2019-01-12T04:45:08.223Z,94.20
2019-01-12T04:46:07.760Z,94.10
2019-01-12T04:47:05.898Z,94.10
2019-01-12T04:48:07.527Z,94.10
2019-01-12T04:49:05.453Z,94.10
2019-01-12T04:50:13.573Z,94.10
2019-01-12T04:51:13.215Z,94.10
2019-01-12T04:52:05.186Z,94.10
2019-01-12T04:53:05.263Z,94.10
2019-01-12T04:54:07.883Z,94.10
2019-01-12T04:55:08.501Z,94.10
2019-01-12T04:56:05.517Z,94.20
2019-01-12T04:57:05.587Z,94.20
2019-01-12T04:58:05.691Z,94.20
2019-01-12T04:59:08.310Z,94.20
2019-01-12T05:00:07.773Z,94.20
2019-01-12T05:01:05.897Z,94.20
2019-01-12T05:02:05.038Z,94.20
2019-01-12T05:03:05.114Z,94.20
2019-01-12T05:04:07.851Z,94.20
2019-01-12T05:05:05.885Z,94.20
2019-01-12T05:06:05.988Z,94.20
2019-01-12T05:07:05.118Z,94.20
2019-01-12T05:08:05.307Z,94.20
2019-01-12T05:09:05.463Z,94.20
2019-01-12T05:10:08.132Z,94.20
2019-01-12T05:11:07.594Z,94.20
2019-01-12T05:12:05.508Z,94.30
2019-01-12T05:13:05.585Z,94.30
2019-01-12T05:14:08.336Z,94.20
2019-01-12T05:15:07.789Z,94.20
2019-01-12T05:16:05.755Z,94.20
2019-01-12T05:17:05.876Z,94.30
2019-01-12T05:18:08.485Z,94.40
2019-01-12T05:19:05.652Z,94.40
2019-01-12T05:20:08.266Z,94.30
2019-01-12T05:21:05.306Z,94.40
2019-01-12T05:22:05.587Z,94.40
2019-01-12T05:23:05.679Z,94.30
2019-01-12T05:24:05.738Z,94.40
2019-01-12T05:25:06.435Z,94.40
2019-01-12T05:26:05.496Z,94.30
2019-01-12T05:27:08.161Z,94.50
2019-01-12T05:28:05.327Z,94.50
2019-01-12T05:29:05.504Z,94.50
2019-01-12T05:30:05.058Z,94.40
2019-01-12T05:31:05.119Z,94.40
2019-01-12T05:32:07.719Z,94.40
2019-01-12T05:33:05.645Z,94.40
2019-01-12T05:34:05.780Z,94.40
2019-01-12T05:35:08.388Z,94.30
2019-01-12T05:36:05.358Z,94.40
2019-01-12T05:37:05.476Z,94.30
2019-01-12T05:38:05.757Z,94.30
2019-01-12T05:39:08.443Z,94.30
2019-01-12T05:40:05.473Z,94.30
2019-01-12T05:41:05.592Z,94.30
2019-01-12T05:42:05.642Z,94.30
2019-01-12T05:43:05.768Z,94.30
2019-01-12T05:44:05.840Z,94.30
2019-01-12T05:45:07.590Z,94.30
2019-01-12T05:46:05.669Z,94.30
2019-01-12T05:47:08.338Z,94.40
2019-01-12T05:48:05.330Z,94.40
2019-01-12T05:49:05.395Z,94.40
2019-01-12T05:50:05.558Z,94.40
2019-01-12T05:51:05.717Z,94.50
2019-01-12T05:52:05.858Z,94.50
2019-01-12T05:53:11.127Z,94.50
2019-01-12T05:54:05.255Z,94.60
2019-01-12T05:55:05.290Z,94.50
2019-01-12T05:56:05.353Z,94.70
2019-01-12T05:57:05.431Z,94.60
2019-01-12T05:58:08.001Z,94.70
2019-01-12T05:59:06.120Z,94.80
2019-01-12T06:00:05.673Z,94.70
2019-01-12T06:01:09.368Z,94.80
2019-01-12T06:02:05.306Z,94.80
2019-01-12T06:03:07.852Z,94.80
2019-01-12T06:04:05.749Z,94.80
2019-01-12T06:05:08.424Z,94.80
2019-01-12T06:06:07.862Z,94.80
2019-01-12T06:07:08.399Z,94.80
2019-01-12T06:08:08.553Z,94.80
2019-01-12T06:09:05.515Z,94.80
2019-01-12T06:10:08.090Z,94.90
2019-01-12T06:11:05.091Z,94.90
2019-01-12T06:12:05.299Z,94.90
2019-01-12T06:13:07.961Z,94.90
2019-01-12T06:14:08.496Z,94.90
2019-01-12T06:15:05.461Z,94.90
2019-01-12T06:16:08.071Z,94.90
2019-01-12T06:17:07.617Z,94.90
2019-01-12T06:18:08.031Z,94.90
2019-01-12T06:19:08.488Z,94.90
2019-01-12T06:20:05.462Z,94.90
2019-01-12T06:21:05.533Z,95.00
2019-01-12T06:22:05.582Z,95.00
2019-01-12T06:23:05.628Z,95.00
2019-01-12T06:24:05.874Z,95.00
2019-01-12T06:25:06.142Z,95.00
2019-01-12T06:26:07.791Z,95.00
2019-01-12T06:27:05.897Z,95.10
2019-01-12T06:28:08.521Z,95.10
2019-01-12T06:29:05.446Z,95.10
2019-01-12T06:30:06.019Z,95.10
2019-01-12T06:31:05.293Z,95.10
2019-01-12T06:32:07.939Z,95.10
2019-01-12T06:33:05.849Z,95.10
2019-01-12T06:34:06.053Z,95.10
2019-01-12T06:35:05.290Z,95.10
2019-01-12T06:36:07.876Z,95.00
2019-01-12T06:37:08.393Z,95.00
2019-01-12T06:38:10.350Z,95.10
2019-01-12T06:39:12.877Z,95.10
2019-01-12T06:40:05.804Z,95.10
2019-01-12T06:41:05.822Z,95.00
2019-01-12T06:42:10.896Z,95.10
2019-01-12T06:43:05.889Z,95.10
2019-01-12T06:44:08.568Z,95.10
2019-01-12T06:45:10.646Z,95.10
2019-01-12T06:46:08.072Z,95.00
2019-01-12T06:47:05.044Z,95.10
2019-01-12T06:48:05.139Z,95.00
2019-01-12T06:49:05.346Z,95.00
2019-01-12T06:50:05.547Z,95.00
2019-01-12T06:51:05.792Z,95.00
2019-01-12T06:52:05.911Z,95.00
2019-01-12T06:53:05.063Z,95.00
2019-01-12T06:54:05.246Z,95.00
2019-01-12T06:55:05.697Z,95.00
2019-01-12T06:56:11.317Z,95.00
2019-01-12T06:57:05.432Z,95.00
2019-01-12T06:58:05.583Z,95.00
2019-01-12T06:59:05.614Z,95.00
2019-01-12T07:00:05.701Z,95.00
2019-01-12T07:01:05.748Z,95.00
2019-01-12T07:02:06.073Z,95.00
2019-01-12T07:03:07.798Z,95.00
2019-01-12T07:04:10.794Z,95.00
2019-01-12T07:05:05.718Z,95.00
2019-01-12T07:06:08.441Z,94.90
2019-01-12T07:07:05.376Z,95.00
2019-01-12T07:08:08.036Z,94.90
2019-01-12T07:09:05.045Z,94.90
2019-01-12T07:10:07.562Z,95.00
2019-01-12T07:11:05.490Z,95.00
2019-01-12T07:12:05.646Z,95.00
2019-01-12T07:13:05.746Z,95.00
2019-01-12T07:14:05.896Z,95.00
2019-01-12T07:15:05.986Z,95.00
2019-01-12T07:16:05.167Z,95.00
2019-01-12T07:17:08.017Z,94.90
2019-01-12T07:18:09.380Z,95.00
2019-01-12T07:19:05.478Z,95.00
2019-01-12T07:20:05.483Z,94.90
2019-01-12T07:21:08.139Z,94.90
2019-01-12T07:22:07.700Z,94.90
2019-01-12T07:23:05.645Z,94.90
2019-01-12T07:24:05.719Z,94.90
2019-01-12T07:25:05.730Z,94.90
2019-01-12T07:26:05.778Z,94.90
2019-01-12T07:27:08.462Z,95.00
2019-01-12T07:28:07.923Z,94.90
2019-01-12T07:29:05.932Z,94.90
2019-01-12T07:30:05.414Z,94.90
2019-01-12T07:31:08.053Z,94.90
2019-01-12T07:32:06.056Z,94.90
2019-01-12T07:33:05.320Z,94.90
2019-01-12T07:34:05.558Z,94.90
2019-01-12T07:35:13.300Z,94.90
2019-01-12T07:36:05.277Z,95.00
2019-01-12T07:37:05.344Z,94.90
2019-01-12T07:38:05.632Z,94.90
2019-01-12T07:39:05.715Z,94.90
2019-01-12T07:40:05.792Z,94.90
2019-01-12T07:41:05.987Z,94.90
2019-01-12T07:42:07.644Z,94.90
2019-01-12T07:43:08.217Z,94.90
2019-01-12T07:44:07.740Z,94.90
2019-01-12T07:45:05.728Z,94.90
2019-01-12T07:46:05.725Z,94.90
2019-01-12T07:47:08.409Z,94.90
2019-01-12T07:48:07.868Z,94.90
2019-01-12T07:49:08.425Z,94.90
2019-01-12T07:50:08.046Z,94.80
2019-01-12T07:51:05.091Z,94.80
2019-01-12T07:52:05.428Z,94.90
2019-01-12T07:53:05.547Z,94.90
2019-01-12T07:54:05.732Z,94.90
2019-01-12T07:55:05.877Z,94.90
2019-01-12T07:56:08.503Z,94.90
2019-01-12T07:57:05.641Z,94.90
2019-01-12T07:58:08.257Z,94.90
2019-01-12T07:59:07.653Z,94.90
2019-01-12T08:00:08.126Z,94.90
2019-01-12T08:01:05.129Z,94.90
2019-01-12T08:02:10.362Z,94.90
2019-01-12T08:03:12.980Z,94.90
2019-01-12T08:04:05.971Z,94.90
2019-01-12T08:05:10.171Z,94.90
2019-01-12T08:06:07.803Z,94.90
2019-01-12T08:07:05.779Z,94.90
2019-01-12T08:08:10.926Z,94.90
2019-01-12T08:09:05.922Z,94.90
2019-01-12T08:10:05.013Z,94.90
2019-01-12T08:11:07.712Z,94.90
2019-01-12T08:12:10.721Z,94.90
2019-01-12T08:13:05.657Z,94.90
2019-01-12T08:14:05.765Z,94.90
2019-01-12T08:15:05.818Z,94.90
2019-01-12T08:16:05.855Z,95.10
2019-01-12T08:17:06.084Z,95.10
2019-01-12T08:18:05.286Z,95.10
2019-01-12T08:19:05.475Z,95.10
2019-01-12T08:20:10.596Z,95.10
2019-01-12T08:21:05.502Z,95.10
2019-01-12T08:22:08.067Z,95.00
2019-01-12T08:23:06.103Z,95.10
2019-01-12T08:24:07.802Z,95.00
2019-01-12T08:25:05.657Z,95.00
2019-01-12T08:26:05.821Z,95.00
2019-01-12T08:27:08.532Z,95.00
2019-01-12T08:28:10.623Z,95.10
2019-01-12T08:29:05.591Z,95.20
2019-01-12T08:30:07.647Z,95.10
2019-01-12T08:31:08.142Z,95.10
2019-01-12T08:32:08.523Z,95.00
2019-01-12T08:33:08.021Z,95.00
2019-01-12T08:34:06.036Z,95.00
2019-01-12T08:35:05.194Z,95.00
2019-01-12T08:36:05.306Z,95.00
2019-01-12T08:37:05.467Z,95.00
2019-01-12T08:38:05.650Z,95.00
2019-01-12T08:39:08.330Z,95.00
2019-01-12T08:40:07.948Z,95.00
2019-01-12T08:41:08.479Z,95.00
2019-01-12T08:42:05.498Z,95.00
2019-01-12T08:43:05.584Z,95.00
2019-01-12T08:44:05.711Z,95.00
2019-01-12T08:45:05.977Z,95.00
2019-01-12T08:46:05.099Z,95.00
2019-01-12T08:47:05.174Z,94.90
2019-01-12T08:48:07.879Z,94.90
2019-01-12T08:49:05.893Z,94.90
2019-01-12T08:50:05.376Z,94.90
2019-01-12T08:51:07.542Z,94.90
2019-01-12T08:52:05.453Z,94.90
2019-01-12T08:53:05.510Z,94.90
2019-01-12T08:54:08.139Z,94.80
2019-01-12T08:55:07.637Z,94.70
2019-01-12T08:56:05.612Z,94.70
2019-01-12T08:57:05.652Z,94.70
2019-01-12T08:58:05.334Z,94.70
2019-01-12T08:59:08.176Z,94.70
2019-01-12T09:00:05.301Z,94.60
2019-01-12T09:01:06.302Z,94.50
2019-01-12T09:02:10.369Z,94.60
2019-01-12T09:03:05.360Z,94.60
2019-01-12T09:04:05.570Z,94.50
2019-01-12T09:05:08.369Z,94.40
2019-01-12T09:06:05.489Z,94.40
2019-01-12T09:07:05.623Z,94.40
2019-01-12T09:08:05.767Z,94.40
2019-01-12T09:09:06.210Z,94.30
2019-01-12T09:10:11.190Z,94.30
2019-01-12T09:11:07.831Z,94.20
2019-01-12T09:12:05.939Z,94.20
2019-01-12T09:13:07.630Z,94.20
2019-01-12T09:14:08.270Z,94.10
2019-01-12T09:15:05.233Z,94.00
2019-01-12T09:16:05.277Z,94.00
2019-01-12T09:17:07.935Z,94.00
2019-01-12T09:18:05.905Z,94.00
2019-01-12T09:19:08.503Z,93.90
2019-01-12T09:20:05.485Z,93.90
2019-01-12T09:21:05.669Z,93.80
2019-01-12T09:22:08.357Z,93.80
2019-01-12T09:23:05.359Z,93.80
2019-01-12T09:24:10.648Z,93.80
2019-01-12T09:25:05.644Z,93.70
2019-01-12T09:26:05.744Z,93.70
2019-01-12T09:27:08.379Z,93.70
2019-01-12T09:28:05.433Z,93.70
2019-01-12T09:29:05.496Z,93.60
2019-01-12T09:30:05.575Z,93.60
2019-01-12T09:31:10.881Z,93.50
2019-01-12T09:32:08.477Z,93.30
2019-01-12T09:33:05.604Z,93.20
2019-01-12T09:34:05.804Z,93.30
2019-01-12T09:35:05.899Z,93.30
2019-01-12T09:36:05.113Z,93.20
2019-01-12T09:37:05.207Z,93.00
2019-01-12T09:38:05.317Z,93.20
2019-01-12T09:39:07.917Z,93.10
2019-01-12T09:40:05.889Z,93.10
2019-01-12T09:41:05.982Z,93.10
2019-01-12T09:42:10.145Z,93.00
2019-01-12T09:43:07.607Z,92.90
2019-01-12T09:44:07.991Z,92.80
2019-01-12T09:45:06.089Z,92.80
2019-01-12T09:46:05.278Z,92.80
2019-01-12T09:47:05.416Z,92.80
2019-01-12T09:48:08.137Z,92.70
2019-01-12T09:49:07.592Z,92.80
2019-01-12T09:50:05.800Z,92.70
2019-01-12T09:51:05.938Z,92.80
2019-01-12T09:52:05.070Z,92.80
2019-01-12T09:53:07.733Z,92.70
2019-01-12T09:54:05.687Z,92.70
2019-01-12T09:55:05.803Z,92.60
2019-01-12T09:56:05.858Z,92.60
2019-01-12T09:57:05.960Z,92.60
2019-01-12T09:58:07.745Z,92.60
2019-01-12T09:59:08.265Z,92.60
2019-01-12T10:00:05.174Z,92.60
2019-01-12T10:01:05.680Z,92.60
2019-01-12T10:02:08.471Z,92.50
2019-01-12T10:03:05.485Z,92.50
2019-01-12T10:04:05.538Z,92.50
2019-01-12T10:05:09.524Z,92.50
2019-01-12T10:06:08.057Z,92.40
2019-01-12T10:07:07.712Z,92.40
2019-01-12T10:08:08.236Z,92.30
2019-01-12T10:09:05.220Z,92.40
2019-01-12T10:10:05.293Z,92.30
2019-01-12T10:11:07.843Z,92.30
2019-01-12T10:12:05.770Z,92.30
2019-01-12T10:13:05.882Z,92.30
2019-01-12T10:14:08.531Z,92.20
2019-01-12T10:15:05.615Z,92.20
2019-01-12T10:16:08.254Z,92.20
2019-01-12T10:17:05.457Z,92.40
2019-01-12T10:18:08.105Z,92.30
2019-01-12T10:19:05.147Z,92.30
2019-01-12T10:20:07.814Z,92.10
2019-01-12T10:21:08.280Z,91.90
2019-01-12T10:22:07.716Z,91.90
2019-01-12T10:23:10.911Z,91.90
2019-01-12T10:24:08.467Z,91.90
2019-01-12T10:25:05.476Z,91.90
2019-01-12T10:26:05.522Z,91.90
2019-01-12T10:27:05.767Z,91.70
2019-01-12T10:28:05.927Z,91.60
2019-01-12T10:29:05.082Z,91.60
2019-01-12T10:30:08.070Z,91.70
2019-01-12T10:31:05.020Z,91.70
2019-01-12T10:32:05.243Z,91.70
2019-01-12T10:33:05.394Z,91.70
2019-01-12T10:34:05.581Z,91.60
2019-01-12T10:35:08.164Z,91.60
2019-01-12T10:36:05.199Z,91.60
2019-01-12T10:37:10.494Z,91.60
2019-01-12T10:38:07.999Z,91.50
2019-01-12T10:39:05.947Z,91.50
2019-01-12T10:40:10.226Z,91.40
2019-01-12T10:41:07.735Z,91.40
2019-01-12T10:42:05.717Z,91.40
2019-01-12T10:43:10.975Z,91.50
2019-01-12T10:44:06.132Z,91.50
2019-01-12T10:45:05.307Z,91.50
2019-01-12T10:46:05.388Z,91.50
2019-01-12T10:47:05.574Z,91.60
2019-01-12T10:48:05.814Z,91.60
2019-01-12T10:49:06.045Z,91.60
2019-01-12T10:50:05.433Z,91.70
2019-01-12T10:51:05.691Z,91.70
2019-01-12T10:52:08.409Z,91.70
2019-01-12T10:53:05.479Z,91.70
2019-01-12T10:54:05.657Z,91.60
2019-01-12T10:55:08.274Z,91.60
2019-01-12T10:56:05.310Z,91.60
2019-01-12T10:57:06.196Z,91.60
2019-01-12T10:58:05.480Z,91.50
2019-01-12T10:59:08.154Z,91.40
2019-01-12T11:00:05.275Z,91.50
2019-01-12T11:01:07.870Z,91.40
2019-01-12T11:02:05.833Z,91.40
2019-01-12T11:03:06.013Z,91.40
2019-01-12T11:04:05.110Z,91.40
2019-01-12T11:05:07.751Z,91.40
2019-01-12T11:06:08.315Z,91.30
2019-01-12T11:07:05.625Z,91.30
2019-01-12T11:08:07.761Z,91.30
2019-01-12T11:09:05.831Z,91.30
2019-01-12T11:10:08.618Z,91.20
2019-01-12T11:11:08.324Z,91.20
2019-01-12T11:12:05.260Z,91.20
2019-01-12T11:13:05.344Z,91.20
2019-01-12T11:14:10.513Z,91.10
2019-01-12T11:15:05.495Z,91.10
2019-01-12T11:16:08.209Z,91.00
2019-01-12T11:17:05.270Z,91.00
2019-01-12T11:18:07.876Z,90.90
2019-01-12T11:19:05.821Z,90.80
2019-01-12T11:20:05.927Z,90.70
2019-01-12T11:21:07.879Z,90.60
2019-01-12T11:22:06.005Z,90.70
2019-01-12T11:23:07.682Z,90.50
2019-01-12T11:24:05.812Z,90.50
2019-01-12T11:25:05.901Z,90.50
2019-01-12T11:26:06.116Z,90.60
2019-01-12T11:27:12.050Z,90.70
2019-01-12T11:28:05.318Z,90.50
2019-01-12T11:29:05.551Z,90.60
2019-01-12T11:30:05.672Z,90.60
2019-01-12T11:31:05.781Z,90.50
2019-01-12T11:32:05.849Z,90.50
2019-01-12T11:33:05.852Z,90.60
2019-01-12T11:34:06.037Z,90.50
2019-01-12T11:35:07.765Z,90.50
2019-01-12T11:36:05.789Z,90.50
2019-01-12T11:37:05.896Z,90.40
2019-01-12T11:38:05.971Z,90.20
2019-01-12T11:39:07.594Z,90.10
2019-01-12T11:40:05.526Z,90.10
2019-01-12T11:41:05.743Z,90.00
2019-01-12T11:42:08.483Z,89.80
2019-01-12T11:43:07.987Z,89.40
2019-01-12T11:44:06.081Z,89.50
2019-01-12T11:45:05.420Z,89.30
2019-01-12T11:46:05.543Z,89.30
2019-01-12T11:47:05.634Z,89.40
2019-01-12T11:48:08.312Z,89.20
2019-01-12T11:49:05.386Z,89.20
2019-01-12T11:50:05.487Z,89.20
2019-01-12T11:51:08.192Z,89.20
2019-01-12T11:52:05.286Z,89.20
2019-01-12T11:53:07.940Z,89.30
2019-01-12T11:54:13.633Z,89.40
2019-01-12T11:55:08.243Z,89.40
2019-01-12T11:56:07.703Z,89.40
2019-01-12T11:57:05.665Z,89.40
2019-01-12T11:58:05.842Z,89.40
2019-01-12T11:59:05.654Z,89.50
2019-01-12T12:00:05.786Z,89.50
2019-01-12T12:01:05.854Z,89.60
2019-01-12T12:02:05.974Z,89.60
2019-01-12T12:03:10.123Z,89.70
2019-01-12T12:04:07.377Z,89.70
2019-01-12T12:05:05.413Z,89.70
2019-01-12T12:06:05.503Z,89.70
2019-01-12T12:07:05.572Z,89.80
2019-01-12T12:08:05.606Z,89.90
2019-01-12T12:09:08.178Z,89.70
2019-01-12T12:10:05.180Z,89.80
2019-01-12T12:11:07.785Z,89.70
2019-01-12T12:12:05.721Z,89.70
2019-01-12T12:13:05.756Z,89.60
2019-01-12T12:14:05.862Z,89.60
2019-01-12T12:15:05.938Z,89.50
2019-01-12T12:16:05.042Z,89.40
2019-01-12T12:17:07.941Z,89.40
2019-01-12T12:18:05.900Z,89.40
2019-01-12T12:19:08.484Z,89.40
2019-01-12T12:20:07.974Z,89.40
2019-01-12T12:21:05.870Z,89.40
2019-01-12T12:22:06.014Z,89.40
2019-01-12T12:23:07.626Z,89.40
2019-01-12T12:24:08.097Z,89.30
2019-01-12T12:25:05.228Z,89.40
2019-01-12T12:26:07.873Z,89.20
2019-01-12T12:27:08.401Z,89.20
2019-01-12T12:28:05.408Z,89.20
2019-01-12T12:29:05.456Z,89.40
2019-01-12T12:30:07.765Z,89.30
2019-01-12T12:31:05.705Z,89.30
2019-01-12T12:32:05.766Z,89.30
2019-01-12T12:33:05.775Z,89.20
2019-01-12T12:34:05.950Z,89.20
2019-01-12T12:35:07.708Z,89.30
2019-01-12T12:36:05.712Z,89.30
2019-01-12T12:37:05.827Z,89.40
2019-01-12T12:38:05.976Z,89.40
2019-01-12T12:39:07.675Z,89.40
2019-01-12T12:40:05.619Z,89.40
2019-01-12T12:41:05.738Z,89.40
2019-01-12T12:42:05.942Z,89.60
2019-01-12T12:43:07.701Z,89.40
2019-01-12T12:44:05.661Z,89.50
2019-01-12T12:45:05.759Z,89.50
2019-01-12T12:46:05.843Z,89.50
2019-01-12T12:47:05.984Z,89.50
2019-01-12T12:48:07.661Z,89.60
2019-01-12T12:49:05.663Z,89.60
2019-01-12T12:50:08.430Z,89.20
2019-01-12T12:51:08.033Z,89.00
2019-01-12T12:52:05.157Z,89.00